sensor_id;sensor_type;location;lat;lon;timestamp;temperature;humidity
10247;DHT22;5168;47.854;7.944;2023-10-09T00:01:04;15.20;81.10
10247;DHT22;5168;47.854;7.944;2023-10-09T00:03:45;15.60;76.50
10247;DHT22;5168;47.854;7.944;2023-10-09T00:08:42;16.00;82.60
10247;DHT22;5168;47.854;7.944;2023-10-09T00:11:15;15.90;82.60
10247;DHT22;5168;47.854;7.944;2023-10-09T00:13:40;15.30;81.70
10247;DHT22;5168;47.854;7.944;2023-10-09T00:16:18;15.30;81.30
10247;DHT22;5168;47.854;7.944;2023-10-09T00:19:04;16.00;79.70
10247;DHT22;5168;47.854;7.944;2023-10-09T00:21:47;15.60;76.70
10247;DHT22;5168;47.854;7.944;2023-10-09T00:24:13;15.60;81.40
10247;DHT22;5168;47.854;7.944;2023-10-09T00:26:40;15.50;80.70
10247;DHT22;5168;47.854;7.944;2023-10-09T00:29:13;16.00;80.10
10247;DHT22;5168;47.854;7.944;2023-10-09T00:31:43;15.60;75.10
10247;DHT22;5168;47.854;7.944;2023-10-09T00:34:18;15.70;80.20
10247;DHT22;5168;47.854;7.944;2023-10-09T00:36:48;15.80;79.50
10247;DHT22;5168;47.854;7.944;2023-10-09T00:39:20;15.60;74.50
10247;DHT22;5168;47.854;7.944;2023-10-09T00:42:06;15.60;79.40
10247;DHT22;5168;47.854;7.944;2023-10-09T00:44:33;15.70;74.70
10247;DHT22;5168;47.854;7.944;2023-10-09T00:47:07;15.40;78.40
10247;DHT22;5168;47.854;7.944;2023-10-09T00:49:47;15.60;75.30
10247;DHT22;5168;47.854;7.944;2023-10-09T00:57:18;15.60;80.50
10247;DHT22;5168;47.854;7.944;2023-10-09T01:02:25;15.10;80.10
10247;DHT22;5168;47.854;7.944;2023-10-09T01:05:05;15.70;80.80
10247;DHT22;5168;47.854;7.944;2023-10-09T01:07:47;15.40;74.80
10247;DHT22;5168;47.854;7.944;2023-10-09T01:10:14;15.70;80.90
10247;DHT22;5168;47.854;7.944;2023-10-09T01:12:42;15.30;79.70
10247;DHT22;5168;47.854;7.944;2023-10-09T01:15:10;15.60;79.20
10247;DHT22;5168;47.854;7.944;2023-10-09T01:20:11;15.40;78.80
10247;DHT22;5168;47.854;7.944;2023-10-09T01:22:48;15.70;79.60
10247;DHT22;5168;47.854;7.944;2023-10-09T01:25:15;15.60;79.10
10247;DHT22;5168;47.854;7.944;2023-10-09T01:27:41;15.20;79.00
10247;DHT22;5168;47.854;7.944;2023-10-09T01:30:09;15.40;77.40
10247;DHT22;5168;47.854;7.944;2023-10-09T01:35:06;15.70;78.40
10247;DHT22;5168;47.854;7.944;2023-10-09T01:37:40;15.40;77.70
10247;DHT22;5168;47.854;7.944;2023-10-09T01:40:08;15.00;77.50
10247;DHT22;5168;47.854;7.944;2023-10-09T01:42:52;15.20;76.90
10247;DHT22;5168;47.854;7.944;2023-10-09T01:45:18;14.90;76.30
10247;DHT22;5168;47.854;7.944;2023-10-09T02:00:20;15.60;70.70
10247;DHT22;5168;47.854;7.944;2023-10-09T02:02:50;15.60;77.00
10247;DHT22;5168;47.854;7.944;2023-10-09T02:05:16;15.20;77.00
10247;DHT22;5168;47.854;7.944;2023-10-09T02:07:42;15.40;76.90
10247;DHT22;5168;47.854;7.944;2023-10-09T02:10:21;15.50;71.60
10247;DHT22;5168;47.854;7.944;2023-10-09T02:12:51;15.40;71.20
10247;DHT22;5168;47.854;7.944;2023-10-09T02:20:52;15.40;69.90
10247;DHT22;5168;47.854;7.944;2023-10-09T02:23:30;15.10;74.90
10247;DHT22;5168;47.854;7.944;2023-10-09T02:26:05;15.50;75.00
10247;DHT22;5168;47.854;7.944;2023-10-09T02:28:32;15.80;69.80
10247;DHT22;5168;47.854;7.944;2023-10-09T02:30:58;16.00;73.60
10247;DHT22;5168;47.854;7.944;2023-10-09T02:33:26;16.00;70.40
10247;DHT22;5168;47.854;7.944;2023-10-09T02:35:59;15.80;67.70
10247;DHT22;5168;47.854;7.944;2023-10-09T02:38:34;16.00;74.50
10247;DHT22;5168;47.854;7.944;2023-10-09T02:41:03;16.30;74.60
10247;DHT22;5168;47.854;7.944;2023-10-09T02:43:30;15.90;73.70
10247;DHT22;5168;47.854;7.944;2023-10-09T02:46:15;15.80;67.90
10247;DHT22;5168;47.854;7.944;2023-10-09T02:48:48;16.20;72.40
10247;DHT22;5168;47.854;7.944;2023-10-09T02:56:37;15.70;73.80
10247;DHT22;5168;47.854;7.944;2023-10-09T02:59:09;16.30;70.20
10247;DHT22;5168;47.854;7.944;2023-10-09T03:01:36;16.10;71.70
10247;DHT22;5168;47.854;7.944;2023-10-09T03:04:03;15.90;67.70
10247;DHT22;5168;47.854;7.944;2023-10-09T03:08:57;16.20;72.80
10247;DHT22;5168;47.854;7.944;2023-10-09T03:11:23;16.00;70.30
10247;DHT22;5168;47.854;7.944;2023-10-09T03:13:52;16.20;70.00
10247;DHT22;5168;47.854;7.944;2023-10-09T03:16:18;16.30;72.80
10247;DHT22;5168;47.854;7.944;2023-10-09T03:18:48;16.10;67.90
10247;DHT22;5168;47.854;7.944;2023-10-09T03:21:14;15.50;73.30
10247;DHT22;5168;47.854;7.944;2023-10-09T03:23:40;16.00;74.00
10247;DHT22;5168;47.854;7.944;2023-10-09T03:26:06;15.40;73.70
10247;DHT22;5168;47.854;7.944;2023-10-09T03:28:33;15.80;74.60
10247;DHT22;5168;47.854;7.944;2023-10-09T03:30:59;15.40;74.70
10247;DHT22;5168;47.854;7.944;2023-10-09T03:33:31;15.30;74.60
10247;DHT22;5168;47.854;7.944;2023-10-09T03:36:01;15.50;73.10
10247;DHT22;5168;47.854;7.944;2023-10-09T03:41:01;15.70;76.90
10247;DHT22;5168;47.854;7.944;2023-10-09T03:43:34;15.60;76.20
10247;DHT22;5168;47.854;7.944;2023-10-09T03:46:03;15.20;75.40
10247;DHT22;5168;47.854;7.944;2023-10-09T03:51:02;15.50;77.30
10247;DHT22;5168;47.854;7.944;2023-10-09T03:53:35;14.90;77.30
10247;DHT22;5168;47.854;7.944;2023-10-09T03:56:07;15.10;77.30
10247;DHT22;5168;47.854;7.944;2023-10-09T03:58:42;15.30;75.40
10247;DHT22;5168;47.854;7.944;2023-10-09T04:01:09;14.60;75.50
10247;DHT22;5168;47.854;7.944;2023-10-09T04:03:58;15.10;72.00
10247;DHT22;5168;47.854;7.944;2023-10-09T04:06:28;15.10;71.10
10247;DHT22;5168;47.854;7.944;2023-10-09T04:11:24;15.00;77.80
10247;DHT22;5168;47.854;7.944;2023-10-09T04:13:51;15.30;78.50
10247;DHT22;5168;47.854;7.944;2023-10-09T04:16:21;15.20;79.50
10247;DHT22;5168;47.854;7.944;2023-10-09T04:18:59;14.50;79.30
10247;DHT22;5168;47.854;7.944;2023-10-09T04:21:25;14.90;80.10
10247;DHT22;5168;47.854;7.944;2023-10-09T04:24:03;15.10;80.70
10247;DHT22;5168;47.854;7.944;2023-10-09T04:29:15;14.80;80.70
10247;DHT22;5168;47.854;7.944;2023-10-09T04:31:56;14.70;75.20
10247;DHT22;5168;47.854;7.944;2023-10-09T04:34:25;14.70;75.20
10247;DHT22;5168;47.854;7.944;2023-10-09T04:36:54;14.60;80.90
10247;DHT22;5168;47.854;7.944;2023-10-09T04:39:28;14.90;81.60
10247;DHT22;5168;47.854;7.944;2023-10-09T04:41:54;14.50;81.40
10247;DHT22;5168;47.854;7.944;2023-10-09T04:44:41;14.70;76.00
10247;DHT22;5168;47.854;7.944;2023-10-09T04:47:26;14.80;77.60
10247;DHT22;5168;47.854;7.944;2023-10-09T04:57:40;14.80;77.10
10247;DHT22;5168;47.854;7.944;2023-10-09T05:00:09;14.90;83.40
10247;DHT22;5168;47.854;7.944;2023-10-09T05:02:51;14.80;82.90
10247;DHT22;5168;47.854;7.944;2023-10-09T05:08:10;14.70;80.00
10247;DHT22;5168;47.854;7.944;2023-10-09T05:11:00;14.70;76.00
10247;DHT22;5168;47.854;7.944;2023-10-09T05:13:33;14.70;75.30
10247;DHT22;5168;47.854;7.944;2023-10-09T05:16:15;14.70;77.90
10247;DHT22;5168;47.854;7.944;2023-10-09T05:18:47;15.10;82.30
10247;DHT22;5168;47.854;7.944;2023-10-09T05:21:26;15.00;81.30
10247;DHT22;5168;47.854;7.944;2023-10-09T05:24:01;14.50;80.70
10247;DHT22;5168;47.854;7.944;2023-10-09T05:26:41;14.20;81.00
10247;DHT22;5168;47.854;7.944;2023-10-09T05:29:10;15.20;82.20
10247;DHT22;5168;47.854;7.944;2023-10-09T05:31:48;14.80;75.00
10247;DHT22;5168;47.854;7.944;2023-10-09T05:34:34;14.60;76.50
10247;DHT22;5168;47.854;7.944;2023-10-09T05:37:04;14.50;82.30
10247;DHT22;5168;47.854;7.944;2023-10-09T05:39:48;14.40;82.60
10247;DHT22;5168;47.854;7.944;2023-10-09T05:42:44;14.20;75.60
10247;DHT22;5168;47.854;7.944;2023-10-09T05:45:11;15.00;82.90
10247;DHT22;5168;47.854;7.944;2023-10-09T05:50:26;14.00;83.70
10247;DHT22;5168;47.854;7.944;2023-10-09T05:52:54;14.10;80.80
10247;DHT22;5168;47.854;7.944;2023-10-09T05:55:20;14.40;81.70
10247;DHT22;5168;47.854;7.944;2023-10-09T05:57:50;14.20;80.50
10247;DHT22;5168;47.854;7.944;2023-10-09T06:03:19;14.10;84.30
10247;DHT22;5168;47.854;7.944;2023-10-09T06:05:49;14.60;79.40
10247;DHT22;5168;47.854;7.944;2023-10-09T06:08:30;14.70;85.50
10247;DHT22;5168;47.854;7.944;2023-10-09T06:11:12;14.40;79.30
10247;DHT22;5168;47.854;7.944;2023-10-09T06:13:58;14.30;83.80
10247;DHT22;5168;47.854;7.944;2023-10-09T06:16:39;14.60;78.10
10247;DHT22;5168;47.854;7.944;2023-10-09T06:19:08;14.60;84.20
10247;DHT22;5168;47.854;7.944;2023-10-09T06:21:57;14.70;78.10
10247;DHT22;5168;47.854;7.944;2023-10-09T06:24:41;15.20;84.80
10247;DHT22;5168;47.854;7.944;2023-10-09T06:29:49;15.40;79.60
10247;DHT22;5168;47.854;7.944;2023-10-09T06:34:51;15.10;84.00
10247;DHT22;5168;47.854;7.944;2023-10-09T06:37:21;14.90;84.30
10247;DHT22;5168;47.854;7.944;2023-10-09T06:39:53;15.40;79.00
10247;DHT22;5168;47.854;7.944;2023-10-09T06:42:39;15.20;84.50
10247;DHT22;5168;47.854;7.944;2023-10-09T06:45:12;16.20;85.20
10247;DHT22;5168;47.854;7.944;2023-10-09T06:47:43;16.00;84.20
10247;DHT22;5168;47.854;7.944;2023-10-09T06:50:29;16.80;84.30
10247;DHT22;5168;47.854;7.944;2023-10-09T06:53:13;17.40;85.70
10247;DHT22;5168;47.854;7.944;2023-10-09T06:55:39;17.50;85.10
10247;DHT22;5168;47.854;7.944;2023-10-09T06:58:22;17.20;83.70
10247;DHT22;5168;47.854;7.944;2023-10-09T07:00:52;17.30;77.90
10247;DHT22;5168;47.854;7.944;2023-10-09T07:06:25;16.70;79.90
10247;DHT22;5168;47.854;7.944;2023-10-09T07:09:12;16.70;82.70
10247;DHT22;5168;47.854;7.944;2023-10-09T07:11:42;16.70;83.60
10247;DHT22;5168;47.854;7.944;2023-10-09T07:14:28;17.50;85.80
10247;DHT22;5168;47.854;7.944;2023-10-09T07:17:02;16.80;81.00
10247;DHT22;5168;47.854;7.944;2023-10-09T07:19:31;16.90;87.30
10247;DHT22;5168;47.854;7.944;2023-10-09T07:22:03;16.80;83.40
10247;DHT22;5168;47.854;7.944;2023-10-09T07:24:31;17.30;86.70
10247;DHT22;5168;47.854;7.944;2023-10-09T07:27:08;17.30;85.30
10247;DHT22;5168;47.854;7.944;2023-10-09T07:29:37;16.50;88.20
10247;DHT22;5168;47.854;7.944;2023-10-09T07:32:16;16.60;88.50
10247;DHT22;5168;47.854;7.944;2023-10-09T07:34:50;16.90;83.60
10247;DHT22;5168;47.854;7.944;2023-10-09T07:37:23;16.80;89.20
10247;DHT22;5168;47.854;7.944;2023-10-09T07:39:51;17.10;88.40
10247;DHT22;5168;47.854;7.944;2023-10-09T07:42:24;16.90;84.70
10247;DHT22;5168;47.854;7.944;2023-10-09T07:45:12;16.90;90.00
10247;DHT22;5168;47.854;7.944;2023-10-09T07:47:46;17.00;85.10
10247;DHT22;5168;47.854;7.944;2023-10-09T07:50:34;16.50;90.30
10247;DHT22;5168;47.854;7.944;2023-10-09T07:53:15;17.20;91.50
10247;DHT22;5168;47.854;7.944;2023-10-09T07:55:45;16.90;91.30
10247;DHT22;5168;47.854;7.944;2023-10-09T07:58:24;17.20;90.90
10247;DHT22;5168;47.854;7.944;2023-10-09T08:00:57;16.90;87.50
10247;DHT22;5168;47.854;7.944;2023-10-09T08:03:35;16.90;88.20
10247;DHT22;5168;47.854;7.944;2023-10-09T08:11:31;16.60;91.70
10247;DHT22;5168;47.854;7.944;2023-10-09T08:14:09;16.50;91.80
10247;DHT22;5168;47.854;7.944;2023-10-09T08:16:47;17.00;90.80
10247;DHT22;5168;47.854;7.944;2023-10-09T08:19:13;17.70;90.00
10247;DHT22;5168;47.854;7.944;2023-10-09T08:25:03;19.00;87.10
10247;DHT22;5168;47.854;7.944;2023-10-09T08:27:29;18.60;86.30
10247;DHT22;5168;47.854;7.944;2023-10-09T08:35:08;19.00;85.70
10247;DHT22;5168;47.854;7.944;2023-10-09T08:40:19;20.00;81.50
10247;DHT22;5168;47.854;7.944;2023-10-09T08:42:53;19.50;85.30
10247;DHT22;5168;47.854;7.944;2023-10-09T08:45:22;19.60;86.20
10247;DHT22;5168;47.854;7.944;2023-10-09T08:47:53;19.70;83.10
10247;DHT22;5168;47.854;7.944;2023-10-09T08:50:22;19.90;88.40
10247;DHT22;5168;47.854;7.944;2023-10-09T08:52:50;19.70;84.30
10247;DHT22;5168;47.854;7.944;2023-10-09T08:55:16;19.50;88.40
10247;DHT22;5168;47.854;7.944;2023-10-09T08:57:44;19.50;87.60
10247;DHT22;5168;47.854;7.944;2023-10-09T09:00:17;19.90;83.50
10247;DHT22;5168;47.854;7.944;2023-10-09T09:02:47;20.00;84.20
10247;DHT22;5168;47.854;7.944;2023-10-09T09:05:19;20.70;85.00
10247;DHT22;5168;47.854;7.944;2023-10-09T09:07:51;21.30;82.90
10247;DHT22;5168;47.854;7.944;2023-10-09T09:10:27;21.70;83.90
10247;DHT22;5168;47.854;7.944;2023-10-09T09:13:02;22.00;79.10
10247;DHT22;5168;47.854;7.944;2023-10-09T09:15:29;22.70;80.30
10247;DHT22;5168;47.854;7.944;2023-10-09T09:18:06;23.50;73.80
10247;DHT22;5168;47.854;7.944;2023-10-09T09:20:32;23.90;72.90
10247;DHT22;5168;47.854;7.944;2023-10-09T09:23:05;24.20;72.60
10247;DHT22;5168;47.854;7.944;2023-10-09T09:26:00;24.70;68.50
10247;DHT22;5168;47.854;7.944;2023-10-09T09:28:29;25.40;68.80
10247;DHT22;5168;47.854;7.944;2023-10-09T09:31:08;25.20;67.60
10247;DHT22;5168;47.854;7.944;2023-10-09T09:33:40;25.30;66.90
10247;DHT22;5168;47.854;7.944;2023-10-09T09:36:08;25.50;66.20
10247;DHT22;5168;47.854;7.944;2023-10-09T09:38:37;25.30;63.90
10247;DHT22;5168;47.854;7.944;2023-10-09T09:41:30;25.90;63.40
10247;DHT22;5168;47.854;7.944;2023-10-09T09:43:59;26.00;66.00
10247;DHT22;5168;47.854;7.944;2023-10-09T09:46:34;25.30;65.60
10247;DHT22;5168;47.854;7.944;2023-10-09T09:49:02;25.70;66.70
10247;DHT22;5168;47.854;7.944;2023-10-09T09:51:32;25.20;63.70
10247;DHT22;5168;47.854;7.944;2023-10-09T09:53:58;25.40;66.30
10247;DHT22;5168;47.854;7.944;2023-10-09T09:56:29;25.40;66.60
10247;DHT22;5168;47.854;7.944;2023-10-09T09:58:57;25.70;65.20
10247;DHT22;5168;47.854;7.944;2023-10-09T10:01:29;25.90;65.00
10247;DHT22;5168;47.854;7.944;2023-10-09T10:04:09;25.80;67.50
10247;DHT22;5168;47.854;7.944;2023-10-09T10:06:40;26.20;66.10
10247;DHT22;5168;47.854;7.944;2023-10-09T10:11:47;26.40;65.20
10247;DHT22;5168;47.854;7.944;2023-10-09T10:14:17;26.60;66.30
10247;DHT22;5168;47.854;7.944;2023-10-09T10:17:06;26.30;63.60
10247;DHT22;5168;47.854;7.944;2023-10-09T10:20:05;26.10;62.90
10247;DHT22;5168;47.854;7.944;2023-10-09T10:25:37;25.60;66.40
10247;DHT22;5168;47.854;7.944;2023-10-09T10:28:19;25.40;68.70
10247;DHT22;5168;47.854;7.944;2023-10-09T10:33:20;24.50;68.10
10247;DHT22;5168;47.854;7.944;2023-10-09T10:35:48;23.90;68.40
10247;DHT22;5168;47.854;7.944;2023-10-09T10:41:31;23.60;68.20
10247;DHT22;5168;47.854;7.944;2023-10-09T10:44:02;23.60;71.70
10247;DHT22;5168;47.854;7.944;2023-10-09T10:49:18;22.80;74.30
10247;DHT22;5168;47.854;7.944;2023-10-09T10:51:48;23.70;74.80
10247;DHT22;5168;47.854;7.944;2023-10-09T10:54:23;23.40;74.10
10247;DHT22;5168;47.854;7.944;2023-10-09T10:56:57;24.10;72.80
10247;DHT22;5168;47.854;7.944;2023-10-09T10:59:23;24.00;70.40
10247;DHT22;5168;47.854;7.944;2023-10-09T11:01:51;24.00;70.30
10247;DHT22;5168;47.854;7.944;2023-10-09T11:04:24;24.10;71.90
10247;DHT22;5168;47.854;7.944;2023-10-09T11:06:57;24.40;71.30
10247;DHT22;5168;47.854;7.944;2023-10-09T11:09:46;24.20;72.70
10247;DHT22;5168;47.854;7.944;2023-10-09T11:12:46;25.90;73.00
10247;DHT22;5168;47.854;7.944;2023-10-09T11:15:17;25.40;70.40
10247;DHT22;5168;47.854;7.944;2023-10-09T11:17:57;26.40;71.10
10247;DHT22;5168;47.854;7.944;2023-10-09T11:20:33;27.10;68.80
10247;DHT22;5168;47.854;7.944;2023-10-09T11:22:59;27.40;65.30
10247;DHT22;5168;47.854;7.944;2023-10-09T11:25:43;27.90;66.10
10247;DHT22;5168;47.854;7.944;2023-10-09T11:28:33;28.40;65.00
10247;DHT22;5168;47.854;7.944;2023-10-09T11:31:23;28.40;63.90
10247;DHT22;5168;47.854;7.944;2023-10-09T11:33:50;28.40;64.80
10247;DHT22;5168;47.854;7.944;2023-10-09T11:36:20;28.40;65.90
10247;DHT22;5168;47.854;7.944;2023-10-09T11:39:00;28.50;65.20
10247;DHT22;5168;47.854;7.944;2023-10-09T11:41:42;28.70;65.10
10247;DHT22;5168;47.854;7.944;2023-10-09T11:44:08;28.60;65.00
10247;DHT22;5168;47.854;7.944;2023-10-09T11:47:03;28.30;66.10
10247;DHT22;5168;47.854;7.944;2023-10-09T11:49:55;28.20;66.80
10247;DHT22;5168;47.854;7.944;2023-10-09T11:52:28;28.00;66.20
10247;DHT22;5168;47.854;7.944;2023-10-09T11:55:22;27.50;65.60
10247;DHT22;5168;47.854;7.944;2023-10-09T12:00:16;28.10;64.90
10247;DHT22;5168;47.854;7.944;2023-10-09T12:02:54;27.60;65.40
10247;DHT22;5168;47.854;7.944;2023-10-09T12:05:20;27.80;66.40
10247;DHT22;5168;47.854;7.944;2023-10-09T12:07:46;27.30;67.40
10247;DHT22;5168;47.854;7.944;2023-10-09T12:10:12;26.80;69.60
10247;DHT22;5168;47.854;7.944;2023-10-09T12:12:39;27.30;70.10
10247;DHT22;5168;47.854;7.944;2023-10-09T12:15:06;26.70;68.90
10247;DHT22;5168;47.854;7.944;2023-10-09T12:17:32;26.60;70.00
10247;DHT22;5168;47.854;7.944;2023-10-09T12:19:57;26.50;70.80
10247;DHT22;5168;47.854;7.944;2023-10-09T12:22:24;26.10;69.20
10247;DHT22;5168;47.854;7.944;2023-10-09T12:24:52;25.80;68.80
10247;DHT22;5168;47.854;7.944;2023-10-09T12:27:18;26.00;72.20
10247;DHT22;5168;47.854;7.944;2023-10-09T12:29:45;25.80;72.60
10247;DHT22;5168;47.854;7.944;2023-10-09T12:32:11;25.30;69.50
10247;DHT22;5168;47.854;7.944;2023-10-09T12:34:38;25.40;70.60
10247;DHT22;5168;47.854;7.944;2023-10-09T12:37:04;25.40;69.20
10247;DHT22;5168;47.854;7.944;2023-10-09T12:39:31;25.40;73.30
10247;DHT22;5168;47.854;7.944;2023-10-09T12:42:01;25.10;71.00
10247;DHT22;5168;47.854;7.944;2023-10-09T12:44:35;25.20;72.30
10247;DHT22;5168;47.854;7.944;2023-10-09T12:47:05;24.50;74.90
10247;DHT22;5168;47.854;7.944;2023-10-09T12:49:31;24.70;72.80
10247;DHT22;5168;47.854;7.944;2023-10-09T12:54:25;24.10;73.00
10247;DHT22;5168;47.854;7.944;2023-10-09T12:56:53;24.00;76.50
10247;DHT22;5168;47.854;7.944;2023-10-09T12:59:19;23.70;75.70
10247;DHT22;5168;47.854;7.944;2023-10-09T13:01:46;24.30;76.30
10247;DHT22;5168;47.854;7.944;2023-10-09T13:04:17;24.70;76.20
10247;DHT22;5168;47.854;7.944;2023-10-09T13:06:44;24.20;75.10
10247;DHT22;5168;47.854;7.944;2023-10-09T13:09:16;24.90;74.80
10247;DHT22;5168;47.854;7.944;2023-10-09T13:11:50;25.40;72.60
10247;DHT22;5168;47.854;7.944;2023-10-09T13:14:16;25.40;72.00
10247;DHT22;5168;47.854;7.944;2023-10-09T13:16:43;25.50;71.00
10247;DHT22;5168;47.854;7.944;2023-10-09T13:19:08;25.50;69.60
10247;DHT22;5168;47.854;7.944;2023-10-09T13:21:38;25.60;71.40
10247;DHT22;5168;47.854;7.944;2023-10-09T13:24:06;25.20;71.70
10247;DHT22;5168;47.854;7.944;2023-10-09T13:26:39;25.10;71.90
10247;DHT22;5168;47.854;7.944;2023-10-09T13:29:06;25.10;73.30
10247;DHT22;5168;47.854;7.944;2023-10-09T13:31:35;25.60;70.80
10247;DHT22;5168;47.854;7.944;2023-10-09T13:34:04;25.00;70.40
10247;DHT22;5168;47.854;7.944;2023-10-09T13:36:32;25.30;71.30
10247;DHT22;5168;47.854;7.944;2023-10-09T13:41:47;25.50;72.90
10247;DHT22;5168;47.854;7.944;2023-10-09T13:44:13;25.60;73.20
10247;DHT22;5168;47.854;7.944;2023-10-09T13:46:38;25.50;70.70
10247;DHT22;5168;47.854;7.944;2023-10-09T13:49:10;25.60;70.90
10247;DHT22;5168;47.854;7.944;2023-10-09T13:51:42;25.50;71.10
10247;DHT22;5168;47.854;7.944;2023-10-09T13:54:12;25.20;71.30
10247;DHT22;5168;47.854;7.944;2023-10-09T13:56:48;26.10;71.00
10247;DHT22;5168;47.854;7.944;2023-10-09T13:59:19;25.80;72.60
10247;DHT22;5168;47.854;7.944;2023-10-09T14:01:46;26.40;71.70
10247;DHT22;5168;47.854;7.944;2023-10-09T14:04:13;26.00;70.00
10247;DHT22;5168;47.854;7.944;2023-10-09T14:06:43;26.30;71.60
10247;DHT22;5168;47.854;7.944;2023-10-09T14:09:10;26.40;70.60
10247;DHT22;5168;47.854;7.944;2023-10-09T14:11:37;26.10;70.90
10247;DHT22;5168;47.854;7.944;2023-10-09T14:14:09;25.90;70.80
10247;DHT22;5168;47.854;7.944;2023-10-09T14:16:38;26.00;71.90
10247;DHT22;5168;47.854;7.944;2023-10-09T14:19:08;25.30;71.50
10247;DHT22;5168;47.854;7.944;2023-10-09T14:21:39;25.10;73.10
10247;DHT22;5168;47.854;7.944;2023-10-09T14:24:06;25.30;73.70
10247;DHT22;5168;47.854;7.944;2023-10-09T14:26:41;25.00;73.80
10247;DHT22;5168;47.854;7.944;2023-10-09T14:29:07;25.00;73.70
10247;DHT22;5168;47.854;7.944;2023-10-09T14:31:32;25.30;72.90
10247;DHT22;5168;47.854;7.944;2023-10-09T14:34:04;25.20;73.00
10247;DHT22;5168;47.854;7.944;2023-10-09T14:36:30;25.00;73.70
10247;DHT22;5168;47.854;7.944;2023-10-09T14:39:02;24.20;74.00
10247;DHT22;5168;47.854;7.944;2023-10-09T14:41:30;24.50;75.30
10247;DHT22;5168;47.854;7.944;2023-10-09T14:43:58;24.10;76.50
10247;DHT22;5168;47.854;7.944;2023-10-09T14:46:24;23.50;75.00
10247;DHT22;5168;47.854;7.944;2023-10-09T14:48:54;23.70;73.40
10247;DHT22;5168;47.854;7.944;2023-10-09T14:51:21;23.60;73.80
10247;DHT22;5168;47.854;7.944;2023-10-09T14:53:53;23.30;76.80
10247;DHT22;5168;47.854;7.944;2023-10-09T14:56:19;22.90;76.90
10247;DHT22;5168;47.854;7.944;2023-10-09T14:58:54;23.40;77.60
10247;DHT22;5168;47.854;7.944;2023-10-09T15:01:22;23.30;77.70
10247;DHT22;5168;47.854;7.944;2023-10-09T15:03:50;23.20;75.90
10247;DHT22;5168;47.854;7.944;2023-10-09T15:06:18;23.10;78.80
10247;DHT22;5168;47.854;7.944;2023-10-09T15:08:44;22.70;78.20
10247;DHT22;5168;47.854;7.944;2023-10-09T15:11:12;22.40;78.00
10247;DHT22;5168;47.854;7.944;2023-10-09T15:13:37;22.70;79.90
10247;DHT22;5168;47.854;7.944;2023-10-09T15:16:04;22.70;79.50
10247;DHT22;5168;47.854;7.944;2023-10-09T15:18:30;22.50;79.30
10247;DHT22;5168;47.854;7.944;2023-10-09T15:20:58;22.10;79.20
10247;DHT22;5168;47.854;7.944;2023-10-09T15:23:25;22.50;83.30
10247;DHT22;5168;47.854;7.944;2023-10-09T15:28:19;22.20;81.50
10247;DHT22;5168;47.854;7.944;2023-10-09T15:33:14;22.00;85.70
10247;DHT22;5168;47.854;7.944;2023-10-09T15:38:07;22.30;86.60
10247;DHT22;5168;47.854;7.944;2023-10-09T15:40:38;21.90;85.30
10247;DHT22;5168;47.854;7.944;2023-10-09T15:45:31;21.50;85.60
10247;DHT22;5168;47.854;7.944;2023-10-09T15:47:57;21.50;89.80
10247;DHT22;5168;47.854;7.944;2023-10-09T15:52:54;21.20;85.80
10247;DHT22;5168;47.854;7.944;2023-10-09T15:55:21;21.10;86.00
10247;DHT22;5168;47.854;7.944;2023-10-09T16:00:18;20.50;88.50
10247;DHT22;5168;47.854;7.944;2023-10-09T16:02:48;20.50;88.20
10247;DHT22;5168;47.854;7.944;2023-10-09T16:05:14;21.00;89.70
10247;DHT22;5168;47.854;7.944;2023-10-09T16:07:42;20.60;87.50
10247;DHT22;5168;47.854;7.944;2023-10-09T16:10:08;20.30;86.40
10247;DHT22;5168;47.854;7.944;2023-10-09T16:12:40;20.40;88.50
10247;DHT22;5168;47.854;7.944;2023-10-09T16:15:08;20.20;83.60
10247;DHT22;5168;47.854;7.944;2023-10-09T16:17:34;20.40;87.40
10247;DHT22;5168;47.854;7.944;2023-10-09T16:20:00;19.60;85.40
10247;DHT22;5168;47.854;7.944;2023-10-09T16:22:27;19.40;87.90
10247;DHT22;5168;47.854;7.944;2023-10-09T16:24:55;19.30;83.90
10247;DHT22;5168;47.854;7.944;2023-10-09T16:27:25;19.50;88.30
10247;DHT22;5168;47.854;7.944;2023-10-09T16:29:50;18.90;86.00
10247;DHT22;5168;47.854;7.944;2023-10-09T16:32:17;18.80;83.80
10247;DHT22;5168;47.854;7.944;2023-10-09T16:34:50;19.00;83.00
10247;DHT22;5168;47.854;7.944;2023-10-09T16:37:16;19.50;86.90
10247;DHT22;5168;47.854;7.944;2023-10-09T16:39:43;18.90;86.60
10247;DHT22;5168;47.854;7.944;2023-10-09T16:42:10;18.80;86.80
10247;DHT22;5168;47.854;7.944;2023-10-09T16:44:36;18.90;86.90
10247;DHT22;5168;47.854;7.944;2023-10-09T16:47:03;19.00;87.30
10247;DHT22;5168;47.854;7.944;2023-10-09T16:49:29;19.40;83.80
10247;DHT22;5168;47.854;7.944;2023-10-09T16:54:22;19.00;87.40
10247;DHT22;5168;47.854;7.944;2023-10-09T16:56:48;19.10;88.10
10247;DHT22;5168;47.854;7.944;2023-10-09T16:59:16;19.00;87.90
10247;DHT22;5168;47.854;7.944;2023-10-09T17:01:45;18.50;87.80
10247;DHT22;5168;47.854;7.944;2023-10-09T17:04:11;18.10;87.40
10247;DHT22;5168;47.854;7.944;2023-10-09T17:06:45;18.80;88.60
10247;DHT22;5168;47.854;7.944;2023-10-09T17:09:13;18.80;88.50
10247;DHT22;5168;47.854;7.944;2023-10-09T17:11:42;18.20;88.20
10247;DHT22;5168;47.854;7.944;2023-10-09T17:14:08;18.00;88.40
10247;DHT22;5168;47.854;7.944;2023-10-09T17:16:38;18.10;84.20
10247;DHT22;5168;47.854;7.944;2023-10-09T17:24:03;17.90;89.30
10247;DHT22;5168;47.854;7.944;2023-10-09T17:26:29;17.50;86.10
10247;DHT22;5168;47.854;7.944;2023-10-09T17:31:21;17.80;89.20
10247;DHT22;5168;47.854;7.944;2023-10-09T17:33:49;17.80;85.10
10247;DHT22;5168;47.854;7.944;2023-10-09T17:36:15;17.30;88.10
10247;DHT22;5168;47.854;7.944;2023-10-09T17:38:46;17.30;90.10
10247;DHT22;5168;47.854;7.944;2023-10-09T17:41:18;17.50;88.30
10247;DHT22;5168;47.854;7.944;2023-10-09T17:51:03;17.20;86.00
10247;DHT22;5168;47.854;7.944;2023-10-09T17:53:37;17.70;90.00
10247;DHT22;5168;47.854;7.944;2023-10-09T17:56:08;17.80;90.20
10247;DHT22;5168;47.854;7.944;2023-10-09T17:58:34;17.00;86.70
10247;DHT22;5168;47.854;7.944;2023-10-09T18:03:30;17.20;89.90
10247;DHT22;5168;47.854;7.944;2023-10-09T18:05:57;17.50;89.20
10247;DHT22;5168;47.854;7.944;2023-10-09T18:08:23;17.10;90.70
10247;DHT22;5168;47.854;7.944;2023-10-09T18:10:57;17.40;88.80
10247;DHT22;5168;47.854;7.944;2023-10-09T18:13:25;16.60;90.30
10247;DHT22;5168;47.854;7.944;2023-10-09T18:16:01;17.00;86.30
10247;DHT22;5168;47.854;7.944;2023-10-09T18:18:34;17.00;86.20
10247;DHT22;5168;47.854;7.944;2023-10-09T18:21:05;16.50;85.90
10247;DHT22;5168;47.854;7.944;2023-10-09T18:23:32;16.60;91.00
10247;DHT22;5168;47.854;7.944;2023-10-09T18:25:58;17.30;91.40
10247;DHT22;5168;47.854;7.944;2023-10-09T18:28:24;16.80;87.40
10247;DHT22;5168;47.854;7.944;2023-10-09T18:30:50;16.70;89.30
10247;DHT22;5168;47.854;7.944;2023-10-09T18:40:38;17.00;92.30
10247;DHT22;5168;47.854;7.944;2023-10-09T18:43:04;16.40;91.90
10247;DHT22;5168;47.854;7.944;2023-10-09T18:45:38;16.60;88.90
10247;DHT22;5168;47.854;7.944;2023-10-09T18:48:04;17.00;90.00